createdAt,value
2018-12-13T00:02:16.421Z,1.40
2018-12-13T00:04:42.757Z,1.40
2018-12-13T00:07:09.087Z,1.40
2018-12-13T00:09:35.514Z,1.40
2018-12-13T00:12:02.092Z,1.30
2018-12-13T00:14:28.478Z,1.40
2018-12-13T00:16:54.870Z,1.40
2018-12-13T00:19:21.268Z,1.40
2018-12-13T00:21:47.647Z,1.50
2018-12-13T00:24:14.036Z,1.50
2018-12-13T00:26:55.541Z,1.50
2018-12-13T00:29:21.994Z,1.50
2018-12-13T00:31:48.515Z,1.50
2018-12-13T00:34:14.913Z,1.40
2018-12-13T00:36:42.365Z,1.40
2018-12-13T00:39:08.758Z,1.50
2018-12-13T00:41:36.106Z,1.40
2018-12-13T00:44:02.950Z,1.40
2018-12-13T00:46:29.482Z,1.40
2018-12-13T00:48:56.069Z,1.40
2018-12-13T00:51:22.506Z,1.40
2018-12-13T00:53:48.966Z,1.30
2018-12-13T00:56:15.368Z,1.30
2018-12-13T00:58:41.874Z,1.40
2018-12-13T01:01:08.280Z,1.40
2018-12-13T01:03:34.850Z,1.40
2018-12-13T01:06:01.343Z,1.40
2018-12-13T01:08:27.715Z,1.30
2018-12-13T01:10:54.142Z,1.30
2018-12-13T01:13:20.562Z,1.30
2018-12-13T01:15:46.994Z,1.30
2018-12-13T01:18:13.365Z,1.20
2018-12-13T01:20:39.716Z,1.10
2018-12-13T01:23:06.179Z,1.10
2018-12-13T01:25:32.570Z,1.10
2018-12-13T01:27:59.101Z,1.10
2018-12-13T01:30:25.480Z,1.00
2018-12-13T01:32:51.865Z,1.10
2018-12-13T01:35:18.270Z,1.10
2018-12-13T01:37:44.605Z,1.10
2018-12-13T01:40:11.144Z,1.00
2018-12-13T01:42:37.584Z,1.00
2018-12-13T01:45:04.122Z,1.00
2018-12-13T01:47:30.499Z,1.00
2018-12-13T01:49:57.148Z,1.00
2018-12-13T01:52:23.519Z,1.10
2018-12-13T01:54:49.909Z,1.00
2018-12-13T01:57:16.332Z,1.00
2018-12-13T01:59:42.796Z,1.00
2018-12-13T02:02:09.185Z,1.00
2018-12-13T02:04:35.634Z,1.00
2018-12-13T02:07:01.984Z,1.00
2018-12-13T02:09:28.399Z,1.00
2018-12-13T02:11:54.811Z,1.00
2018-12-13T02:14:21.176Z,0.90
2018-12-13T02:16:47.574Z,0.90
2018-12-13T02:19:13.963Z,1.00
2018-12-13T02:21:40.466Z,1.00
2018-12-13T02:24:06.843Z,1.10
2018-12-13T02:26:33.258Z,1.00
2018-12-13T02:28:59.697Z,1.00
2018-12-13T02:31:26.111Z,1.00
2018-12-13T02:33:52.974Z,1.10
2018-12-13T02:36:19.516Z,1.00
2018-12-13T02:38:45.968Z,1.00
2018-12-13T02:41:12.388Z,1.00
2018-12-13T02:43:38.801Z,1.00
2018-12-13T02:46:05.196Z,0.90
2018-12-13T02:48:31.937Z,0.80
2018-12-13T02:50:58.331Z,0.80
2018-12-13T02:53:24.746Z,0.70
2018-12-13T02:55:51.163Z,0.80
2018-12-13T02:58:17.684Z,0.80
2018-12-13T03:00:44.136Z,0.90
2018-12-13T03:03:10.538Z,0.90
2018-12-13T03:05:36.974Z,1.00
2018-12-13T03:08:03.913Z,0.90
2018-12-13T03:10:31.153Z,0.80
2018-12-13T03:12:57.519Z,0.80
2018-12-13T03:15:23.918Z,0.80
2018-12-13T03:17:50.335Z,0.70
2018-12-13T03:20:16.714Z,0.80
2018-12-13T03:22:43.166Z,0.80
2018-12-13T03:25:09.672Z,0.70
2018-12-13T03:27:36.042Z,0.60
2018-12-13T03:30:04.310Z,0.70
2018-12-13T03:32:30.671Z,0.70
2018-12-13T03:34:57.045Z,0.70
2018-12-13T03:37:23.401Z,0.70
2018-12-13T03:39:49.716Z,0.70
2018-12-13T03:42:16.161Z,0.70
2018-12-13T03:44:42.509Z,0.60
2018-12-13T03:47:08.875Z,0.70
2018-12-13T03:49:35.345Z,0.80
2018-12-13T03:52:01.779Z,0.80
2018-12-13T03:54:28.245Z,0.80
2018-12-13T03:56:54.577Z,0.80
2018-12-13T03:59:20.911Z,0.60
2018-12-13T04:01:47.389Z,0.70
2018-12-13T04:04:13.755Z,0.80
2018-12-13T04:06:40.200Z,0.80
2018-12-13T04:09:06.643Z,0.70
2018-12-13T04:11:33.050Z,0.60
2018-12-13T04:13:59.438Z,0.70
2018-12-13T04:16:25.810Z,0.70
2018-12-13T04:18:52.235Z,0.70
2018-12-13T04:21:18.606Z,0.70
2018-12-13T04:23:44.980Z,0.80
2018-12-13T04:26:11.829Z,0.70
2018-12-13T04:28:38.380Z,0.60
2018-12-13T04:31:04.765Z,0.60
2018-12-13T04:37:00.506Z,0.80
2018-12-13T04:39:26.944Z,0.80
2018-12-13T04:41:53.357Z,0.80
2018-12-13T04:44:19.881Z,0.80
2018-12-13T04:46:46.247Z,0.70
2018-12-13T04:49:12.634Z,0.70
2018-12-13T04:51:39.079Z,0.70
2018-12-13T04:54:06.335Z,0.60
2018-12-13T04:56:32.700Z,0.70
2018-12-13T04:58:59.076Z,0.70
2018-12-13T05:01:25.474Z,0.70
2018-12-13T05:03:51.883Z,0.70
2018-12-13T05:06:18.332Z,0.70
2018-12-13T05:08:44.759Z,0.70
2018-12-13T05:11:11.664Z,0.80
2018-12-13T05:13:38.120Z,0.80
2018-12-13T05:16:04.875Z,0.90
2018-12-13T05:18:31.259Z,0.80
2018-12-13T05:20:57.663Z,0.90
2018-12-13T05:23:24.009Z,0.90
2018-12-13T05:25:50.454Z,0.80
2018-12-13T05:28:16.910Z,0.80
2018-12-13T05:30:43.333Z,0.80
2018-12-13T05:33:09.689Z,0.80
2018-12-13T05:35:36.097Z,0.80
2018-12-13T05:38:02.513Z,0.80
2018-12-13T05:40:28.889Z,0.80
2018-12-13T05:42:55.277Z,0.90
2018-12-13T05:45:21.679Z,0.90
2018-12-13T05:47:48.155Z,1.00
2018-12-13T05:50:14.568Z,1.00
2018-12-13T05:52:41.139Z,0.90
2018-12-13T05:55:08.579Z,1.00
2018-12-13T05:57:35.246Z,1.00
2018-12-13T06:00:01.812Z,1.00
2018-12-13T06:02:28.199Z,1.00
2018-12-13T06:04:54.588Z,1.00
2018-12-13T06:07:20.975Z,1.10
2018-12-13T06:09:47.417Z,1.00
2018-12-13T06:12:13.779Z,1.00
2018-12-13T06:14:40.179Z,1.00
2018-12-13T06:17:06.681Z,1.10
2018-12-13T06:19:33.046Z,1.10
2018-12-13T06:21:59.458Z,1.20
2018-12-13T06:24:25.820Z,1.10
2018-12-13T06:26:53.151Z,1.10
2018-12-13T06:29:19.507Z,1.10
2018-12-13T06:31:45.935Z,1.10
2018-12-13T06:34:12.388Z,1.20
2018-12-13T06:36:38.892Z,1.10
2018-12-13T06:39:06.566Z,1.10
2018-12-13T06:41:32.922Z,1.10
2018-12-13T06:43:59.794Z,1.20
2018-12-13T06:46:26.306Z,1.20
2018-12-13T06:48:52.986Z,1.20
2018-12-13T06:51:20.176Z,1.20
2018-12-13T06:53:46.775Z,1.20
2018-12-13T06:56:13.227Z,1.10
2018-12-13T06:58:40.523Z,1.20
2018-12-13T07:01:07.004Z,1.10
2018-12-13T07:03:33.409Z,1.20
2018-12-13T07:05:59.876Z,1.10
2018-12-13T07:08:26.302Z,1.00
2018-12-13T07:10:52.768Z,1.00
2018-12-13T07:13:19.263Z,1.10
2018-12-13T07:15:45.701Z,1.10
2018-12-13T07:18:12.468Z,1.20
2018-12-13T07:20:38.995Z,1.20
2018-12-13T07:23:05.423Z,1.20
2018-12-13T07:25:31.906Z,1.20
2018-12-13T07:27:58.726Z,1.20
2018-12-13T07:30:25.291Z,1.30
2018-12-13T07:32:51.833Z,1.30
2018-12-13T07:35:18.412Z,1.30
2018-12-13T07:37:44.851Z,1.20
2018-12-13T07:40:12.309Z,1.30
2018-12-13T07:42:38.798Z,1.30
2018-12-13T07:45:06.067Z,1.30
2018-12-13T07:47:32.527Z,1.20
2018-12-13T07:49:59.017Z,1.20
2018-12-13T07:52:25.523Z,1.30
2018-12-13T07:54:51.958Z,1.30
2018-12-13T07:57:19.320Z,1.30
2018-12-13T07:59:45.786Z,1.40
2018-12-13T08:02:13.153Z,1.40
2018-12-13T08:04:39.640Z,1.30
2018-12-13T08:07:06.274Z,1.20
2018-12-13T08:09:32.855Z,1.20
2018-12-13T08:11:59.261Z,1.20
2018-12-13T08:14:25.689Z,1.20
2018-12-13T08:16:52.456Z,1.30
2018-12-13T08:19:18.834Z,1.30
2018-12-13T08:21:45.194Z,1.30
2018-12-13T08:24:11.645Z,1.30
2018-12-13T08:26:38.189Z,1.40
2018-12-13T08:29:04.639Z,1.40
2018-12-13T08:31:31.133Z,1.30
2018-12-13T08:33:57.494Z,1.40
2018-12-13T08:36:24.858Z,1.50
2018-12-13T08:38:51.300Z,1.40
2018-12-13T08:41:17.825Z,1.50
2018-12-13T08:43:44.257Z,1.40
2018-12-13T08:46:10.747Z,1.40
2018-12-13T08:48:37.227Z,1.50
2018-12-13T08:51:03.693Z,1.40
2018-12-13T08:53:30.125Z,1.40
2018-12-13T08:55:56.663Z,1.50
2018-12-13T08:58:23.080Z,1.60
2018-12-13T09:00:49.564Z,1.60
2018-12-13T09:03:15.958Z,1.30
2018-12-13T09:05:42.322Z,1.40
2018-12-13T09:08:08.774Z,1.30
2018-12-13T09:10:35.195Z,1.50
2018-12-13T09:13:01.690Z,1.50
2018-12-13T09:15:28.159Z,1.50
2018-12-13T09:17:54.543Z,1.50
2018-12-13T09:20:20.990Z,1.40
2018-12-13T09:22:47.823Z,1.50
2018-12-13T09:25:14.801Z,1.50
2018-12-13T09:27:41.457Z,1.40
2018-12-13T09:30:07.918Z,1.40
2018-12-13T09:32:34.348Z,1.60
2018-12-13T09:35:15.825Z,1.50
2018-12-13T09:37:47.504Z,1.50
2018-12-13T09:40:10.768Z,1.60
2018-12-13T09:42:37.157Z,1.50
2018-12-13T09:45:05.386Z,1.50
2018-12-13T09:47:31.870Z,1.40
2018-12-13T09:49:58.268Z,1.50
2018-12-13T09:52:24.916Z,1.60
2018-12-13T09:54:51.246Z,1.60
2018-12-13T09:57:18.280Z,1.50
2018-12-13T09:59:44.737Z,1.40
2018-12-13T10:02:12.244Z,1.50
2018-12-13T10:04:38.815Z,1.60
2018-12-13T10:07:05.186Z,1.60
2018-12-13T10:09:31.613Z,1.70
2018-12-13T10:11:58.172Z,1.70
2018-12-13T10:14:24.558Z,1.70
2018-12-13T10:16:51.066Z,1.70
2018-12-13T10:19:17.478Z,1.80
2018-12-13T10:21:43.985Z,1.70
2018-12-13T10:24:10.395Z,1.70
2018-12-13T10:26:36.765Z,1.60
2018-12-13T10:29:03.261Z,1.60
2018-12-13T10:31:29.666Z,1.60
2018-12-13T10:33:57.061Z,1.70
2018-12-13T10:36:23.405Z,1.70
2018-12-13T10:38:52.961Z,1.60
2018-12-13T10:41:19.242Z,1.50
2018-12-13T10:43:45.669Z,1.60
2018-12-13T10:46:12.060Z,1.50
2018-12-13T10:48:38.622Z,1.70
2018-12-13T10:51:05.215Z,1.50
2018-12-13T10:53:32.018Z,1.40
2018-12-13T10:58:52.974Z,1.50
2018-12-13T11:01:25.306Z,1.40
2018-12-13T11:03:52.946Z,1.50
2018-12-13T11:06:19.412Z,1.50
2018-12-13T11:08:45.849Z,1.50
2018-12-13T11:11:12.282Z,1.50
2018-12-13T11:13:38.847Z,1.60
2018-12-13T11:16:05.516Z,1.60
2018-12-13T11:18:32.190Z,1.50
2018-12-13T11:20:58.663Z,1.60
2018-12-13T11:23:25.075Z,1.50
2018-12-13T11:25:51.524Z,1.50
2018-12-13T11:31:21.272Z,1.40
2018-12-13T11:33:47.680Z,1.50
2018-12-13T11:36:14.089Z,1.50
2018-12-13T11:38:40.427Z,1.60
2018-12-13T11:41:06.802Z,1.70
2018-12-13T11:43:33.225Z,1.60
2018-12-13T11:45:59.759Z,1.80
2018-12-13T11:48:26.134Z,1.80
2018-12-13T11:50:52.643Z,1.80
2018-12-13T11:53:19.043Z,1.70
2018-12-13T11:55:45.511Z,1.50
2018-12-13T11:58:12.470Z,1.40
2018-12-13T12:00:38.926Z,1.30
2018-12-13T12:03:05.364Z,1.30
2018-12-13T12:05:32.331Z,1.40
2018-12-13T12:07:58.747Z,1.30
2018-12-13T12:10:25.257Z,1.50
2018-12-13T12:12:51.634Z,1.50
2018-12-13T12:15:18.217Z,1.50
2018-12-13T12:17:45.213Z,1.30
2018-12-13T12:20:11.848Z,1.20
2018-12-13T12:22:38.385Z,1.30
2018-12-13T12:25:05.237Z,1.20
2018-12-13T12:27:31.677Z,1.30
2018-12-13T12:29:58.183Z,1.40
2018-12-13T12:32:24.646Z,1.30
2018-12-13T12:34:51.163Z,1.30
2018-12-13T12:37:17.585Z,1.40
2018-12-13T12:39:44.090Z,1.30
2018-12-13T12:42:10.479Z,1.30
2018-12-13T12:44:38.925Z,1.60
2018-12-13T12:47:05.777Z,1.50
2018-12-13T12:49:32.204Z,1.40
2018-12-13T12:51:58.775Z,1.40
2018-12-13T12:54:25.269Z,1.40
2018-12-13T12:56:51.744Z,1.30
2018-12-13T12:59:19.509Z,1.30
2018-12-13T13:01:46.644Z,1.20
2018-12-13T13:04:13.193Z,1.30
2018-12-13T13:06:39.654Z,1.30
2018-12-13T13:09:07.251Z,1.10
2018-12-13T13:11:33.721Z,1.20
2018-12-13T13:14:00.157Z,1.10
2018-12-13T13:16:26.638Z,1.10
2018-12-13T13:18:53.106Z,1.20
2018-12-13T13:21:20.773Z,1.20
2018-12-13T13:23:47.118Z,1.20
2018-12-13T13:26:13.510Z,1.20
2018-12-13T13:28:39.885Z,1.10
2018-12-13T13:31:06.409Z,1.20
2018-12-13T13:33:32.854Z,1.10
2018-12-13T13:35:59.231Z,1.20
2018-12-13T13:38:25.712Z,1.30
2018-12-13T13:40:53.545Z,1.20
2018-12-13T13:43:20.026Z,1.20
2018-12-13T13:45:46.564Z,1.30
2018-12-13T13:48:13.105Z,1.30
2018-12-13T13:50:39.516Z,1.40
2018-12-13T13:53:06.019Z,1.40
2018-12-13T13:55:32.464Z,1.40
2018-12-13T13:57:59.237Z,1.50
2018-12-13T14:00:25.676Z,1.30
2018-12-13T14:02:52.102Z,1.20
2018-12-13T14:05:18.582Z,1.30
2018-12-13T14:07:45.160Z,1.30
2018-12-13T14:10:11.766Z,1.40
2018-12-13T14:12:38.277Z,1.30
2018-12-13T14:15:05.511Z,1.20
2018-12-13T14:17:32.034Z,1.20
2018-12-13T14:19:58.473Z,1.20
2018-12-13T14:22:24.987Z,1.20
2018-12-13T14:24:51.411Z,1.20
2018-12-13T14:27:18.362Z,1.20
2018-12-13T14:29:44.807Z,1.30
2018-12-13T14:32:11.381Z,1.10
2018-12-13T14:34:37.797Z,1.00
2018-12-13T14:37:05.047Z,1.10
2018-12-13T14:39:31.605Z,1.10
2018-12-13T14:41:58.033Z,1.20
2018-12-13T14:44:24.380Z,1.10
2018-12-13T14:46:50.812Z,1.20
2018-12-13T14:49:17.300Z,1.00
2018-12-13T14:51:43.695Z,1.00
2018-12-13T14:54:11.118Z,1.00
2018-12-13T14:56:37.935Z,1.10
2018-12-13T14:59:04.366Z,1.20
2018-12-13T15:01:30.752Z,1.20
2018-12-13T15:03:57.180Z,1.10
2018-12-13T15:06:23.589Z,1.00
2018-12-13T15:08:50.018Z,1.20
2018-12-13T15:11:16.435Z,1.00
2018-12-13T15:13:42.874Z,0.90
2018-12-13T15:16:09.322Z,0.80
2018-12-13T15:18:35.678Z,0.90
2018-12-13T15:21:02.080Z,0.90
2018-12-13T15:23:28.557Z,1.10
2018-12-13T15:25:55.039Z,1.20
2018-12-13T15:28:21.573Z,1.00
2018-12-13T15:30:47.988Z,0.90
2018-12-13T15:33:14.633Z,0.90
2018-12-13T15:35:41.034Z,0.90
2018-12-13T15:38:07.498Z,1.00
2018-12-13T15:40:33.956Z,1.10
2018-12-13T15:43:00.460Z,1.00
2018-12-13T15:45:26.905Z,0.90
2018-12-13T15:50:48.155Z,0.90
2018-12-13T15:53:14.639Z,0.90
2018-12-13T15:55:41.186Z,1.10
2018-12-13T15:58:07.815Z,0.90
2018-12-13T16:00:34.556Z,0.90
2018-12-13T16:03:00.964Z,1.20
2018-12-13T16:05:42.871Z,1.10
2018-12-13T16:08:10.350Z,1.10
2018-12-13T16:10:36.896Z,1.20
2018-12-13T16:13:03.817Z,1.10
2018-12-13T16:15:30.500Z,0.90
2018-12-13T16:17:56.874Z,0.80
2018-12-13T16:20:23.455Z,0.80
2018-12-13T16:22:50.173Z,0.90
2018-12-13T16:25:16.584Z,0.90
2018-12-13T16:27:43.371Z,0.90
2018-12-13T16:30:10.300Z,1.00
2018-12-13T16:32:36.886Z,1.00
2018-12-13T16:35:03.608Z,0.80
2018-12-13T16:37:30.236Z,0.90
2018-12-13T16:39:56.939Z,0.90
2018-12-13T16:42:24.583Z,1.20
2018-12-13T16:44:51.041Z,1.10
2018-12-13T16:47:19.435Z,0.90
2018-12-13T16:49:46.266Z,0.70
2018-12-13T16:52:14.266Z,0.90
2018-12-13T16:54:40.795Z,0.80
2018-12-13T16:57:07.315Z,0.70
2018-12-13T16:59:33.864Z,0.80
2018-12-13T17:02:00.690Z,0.80
2018-12-13T17:04:27.160Z,0.60
2018-12-13T17:06:53.498Z,0.60
2018-12-13T17:09:19.874Z,0.60
2018-12-13T17:11:46.317Z,0.70
2018-12-13T17:14:13.891Z,0.80
2018-12-13T17:16:40.532Z,0.70
2018-12-13T17:19:07.116Z,0.90
2018-12-13T17:21:34.077Z,0.80
2018-12-13T17:24:00.737Z,0.80
2018-12-13T17:26:27.485Z,0.70
2018-12-13T17:28:53.980Z,0.70
2018-12-13T17:31:20.452Z,0.80
2018-12-13T17:33:46.898Z,0.90
2018-12-13T17:36:13.721Z,0.90
2018-12-13T17:38:40.792Z,1.00
2018-12-13T17:41:07.195Z,0.80
2018-12-13T17:43:35.222Z,0.80
2018-12-13T17:46:01.639Z,0.70
2018-12-13T17:48:28.071Z,0.70
2018-12-13T17:50:54.484Z,0.70
2018-12-13T17:53:20.840Z,0.60
2018-12-13T17:55:47.241Z,0.70
2018-12-13T17:58:13.783Z,0.60
2018-12-13T18:00:40.197Z,0.70
2018-12-13T18:03:06.585Z,0.60
2018-12-13T18:05:33.188Z,0.70
2018-12-13T18:07:59.597Z,0.70
2018-12-13T18:10:29.324Z,0.60
2018-12-13T18:12:54.505Z,0.50
2018-12-13T18:15:20.926Z,0.50
2018-12-13T18:17:47.491Z,0.60
2018-12-13T18:20:14.021Z,0.70
2018-12-13T18:25:35.083Z,0.50
2018-12-13T18:28:01.530Z,0.50
2018-12-13T18:30:28.113Z,0.50
2018-12-13T18:32:54.616Z,0.40
2018-12-13T18:35:21.015Z,0.40
2018-12-13T18:37:47.381Z,0.40
2018-12-13T18:40:13.803Z,0.30
2018-12-13T18:42:40.250Z,0.30
2018-12-13T18:45:06.829Z,0.30
2018-12-13T18:47:33.285Z,0.40
2018-12-13T18:49:59.764Z,0.40
2018-12-13T18:52:26.550Z,0.40
2018-12-13T18:54:53.148Z,0.30
2018-12-13T18:57:19.503Z,0.40
2018-12-13T18:59:45.955Z,0.40
2018-12-13T19:02:12.732Z,0.40
2018-12-13T19:04:39.268Z,0.40
2018-12-13T19:07:05.748Z,0.40
2018-12-13T19:09:32.214Z,0.50
2018-12-13T19:11:58.659Z,0.50
2018-12-13T19:14:25.139Z,0.50
2018-12-13T19:16:53.731Z,0.50
2018-12-13T19:19:20.163Z,0.40
2018-12-13T19:21:47.620Z,0.50
2018-12-13T19:24:15.162Z,0.40
2018-12-13T19:26:41.662Z,0.40
2018-12-13T19:29:08.216Z,0.50
2018-12-13T19:31:35.377Z,0.40
2018-12-13T19:34:01.902Z,0.30
2018-12-13T19:36:28.430Z,0.40
2018-12-13T19:38:55.897Z,0.30
2018-12-13T19:41:22.517Z,0.30
2018-12-13T19:43:48.978Z,0.30
2018-12-13T19:46:15.363Z,0.40
2018-12-13T19:48:46.234Z,0.40
2018-12-13T19:51:14.419Z,0.50
2018-12-13T19:53:42.116Z,0.60
2018-12-13T19:56:08.729Z,0.50
2018-12-13T19:58:35.075Z,0.60
2018-12-13T20:01:02.562Z,0.50
2018-12-13T20:03:28.925Z,0.60
2018-12-13T20:05:55.349Z,0.60
2018-12-13T20:08:24.613Z,0.60
2018-12-13T20:10:54.573Z,0.50
2018-12-13T20:13:20.430Z,0.50
2018-12-13T20:15:46.804Z,0.40
2018-12-13T20:18:13.165Z,0.50
2018-12-13T20:20:39.590Z,0.40
2018-12-13T20:23:05.954Z,0.50
2018-12-13T20:25:33.497Z,0.50
2018-12-13T20:27:59.939Z,0.40
2018-12-13T20:30:26.317Z,0.50
2018-12-13T20:32:52.704Z,0.50
2018-12-13T20:35:19.411Z,0.50
2018-12-13T20:37:46.324Z,0.40
2018-12-13T20:40:13.137Z,0.40
2018-12-13T20:42:39.627Z,0.30
2018-12-13T20:45:06.512Z,0.30
2018-12-13T20:47:32.984Z,0.30
2018-12-13T20:49:59.710Z,0.40
2018-12-13T20:52:28.108Z,0.50
2018-12-13T20:54:54.670Z,0.40
2018-12-13T20:57:21.161Z,0.40
2018-12-13T20:59:47.567Z,0.40
2018-12-13T21:02:13.959Z,0.40
2018-12-13T21:04:41.396Z,0.40
2018-12-13T21:07:13.799Z,0.40
2018-12-13T21:09:40.173Z,0.40
2018-12-13T21:12:06.587Z,0.40
2018-12-13T21:14:33.992Z,0.40
2018-12-13T21:17:07.467Z,0.40
2018-12-13T21:19:33.877Z,0.50
2018-12-13T21:22:07.288Z,0.40
2018-12-13T21:24:33.679Z,0.40
2018-12-13T21:27:00.043Z,0.40
2018-12-13T21:29:26.504Z,0.40
2018-12-13T21:31:52.903Z,0.40
2018-12-13T21:34:19.309Z,0.30
2018-12-13T21:36:45.765Z,0.40
2018-12-13T21:39:12.322Z,0.30
2018-12-13T21:41:39.303Z,0.30
2018-12-13T21:44:06.048Z,0.20
2018-12-13T21:46:32.490Z,0.30
2018-12-13T21:48:58.841Z,0.30
2018-12-13T21:51:25.337Z,0.30
2018-12-13T21:53:51.701Z,0.30
2018-12-13T21:56:18.177Z,0.20
2018-12-13T21:58:44.646Z,0.30
2018-12-13T22:01:26.376Z,0.30
2018-12-13T22:03:52.796Z,0.20
2018-12-13T22:06:19.253Z,0.20
2018-12-13T22:08:47.576Z,0.10
2018-12-13T22:11:19.822Z,0.20
2018-12-13T22:13:47.248Z,0.20
2018-12-13T22:16:13.836Z,0.20
2018-12-13T22:18:40.307Z,0.20
2018-12-13T22:21:06.861Z,0.10
2018-12-13T22:23:33.311Z,0.10
2018-12-13T22:25:59.821Z,0.10
2018-12-13T22:28:26.268Z,0.00
2018-12-13T22:30:52.709Z,0.10
2018-12-13T22:33:19.093Z,0.20
2018-12-13T22:35:45.438Z,0.20
2018-12-13T22:38:11.866Z,0.20
2018-12-13T22:40:38.448Z,0.10
2018-12-13T22:43:04.862Z,0.10
2018-12-13T22:45:31.237Z,0.20
2018-12-13T22:47:57.620Z,0.10
2018-12-13T22:50:24.000Z,0.10
2018-12-13T22:52:50.431Z,0.10
2018-12-13T22:55:16.870Z,0.10
2018-12-13T22:57:43.332Z,0.10
2018-12-13T23:00:10.508Z,0.10
2018-12-13T23:02:37.197Z,0.10
2018-12-13T23:05:04.858Z,0.10
2018-12-13T23:07:31.277Z,0.10
2018-12-13T23:09:57.718Z,0.10
2018-12-13T23:12:24.136Z,0.10
2018-12-13T23:14:57.865Z,0.10
2018-12-13T23:17:24.345Z,0.10
2018-12-13T23:19:50.751Z,0.10
2018-12-13T23:22:17.160Z,0.10
2018-12-13T23:24:43.573Z,0.00
2018-12-13T23:27:10.260Z,0.00
2018-12-13T23:29:36.682Z,0.00
2018-12-13T23:32:03.118Z,0.10
2018-12-13T23:34:29.639Z,0.10
2018-12-13T23:36:56.010Z,0.10
2018-12-13T23:39:22.528Z,0.10
2018-12-13T23:41:48.973Z,0.10
2018-12-13T23:47:09.892Z,0.00
2018-12-13T23:49:36.326Z,0.00
2018-12-13T23:52:02.802Z,0.00
2018-12-13T23:54:29.237Z,0.00
2018-12-13T23:56:55.597Z,0.10
2018-12-13T23:59:22.083Z,0.00
